Terminal Aerodrome Forecast
Issued by NWS Sterling, VA

Current Version | Previous Version | Text Only | Print | Product List | Glossary On
Versions: 1 2 3 4 5 6 7 8 9 10 11 12 13 14 15 16 17 18 19 20 21 22 23 24 25 26
353
FTUS41 KLWX 291125
TAFDCA
TAF
KDCA 291125Z 2912/3012 06005KT 5SM -DZ BR OVC008
     FM291700 06005KT P6SM OVC015
     FM300000 08005KT P6SM BKN010
     FM300300 06005KT P6SM OVC008
     FM300400 06005KT 5SM -DZ BR OVC008
     FM301000 04005KT 3SM BR OVC008=

USA.gov is the U.S. government's official web portal to all federal, state and local government web resources and services.